<?xml version="1.0" encoding="ISO-8859-1" standalone="yes"?>
<gpx
  version="1.1"
  creator="Touratech QV 4.0.127 Standard - http://www.ttqv.com"
  xmlns:xsi="http://www.w3.org/2001/XMLSchema-instance"  xmlns:topografix="http://www.topografix.com/GPX/Private/TopoGrafix/0/1"
  xmlns="http://www.topografix.com/GPX/1/1"
  xsi:schemaLocation="http://www.topografix.com/GPX/1/1 http://www.topografix.com/GPX/1/1/gpx.xsd">
<metadata>
  <time>2010-02-07T09:31:50Z</time>
  <bounds minlat="47.3063895414158" minlon="10.2815259103957" maxlat="47.3875578923811" maxlon="10.3577126152333"/>
</metadata>
<trk>
  <name>0310_KROTTENKOPF</name>
  <trkseg>
    <trkpt lat="47.3875578923811" lon="10.2815259103957">
    <time>2010-02-07T09:14:56Z</time>
    </trkpt>
    <trkpt lat="47.3866880935864" lon="10.2828629124787">
    <time>2010-02-07T09:14:57Z</time>
    </trkpt>
    <trkpt lat="47.3864049902843" lon="10.2843406622826">
    <time>2010-02-07T09:14:58Z</time>
    </trkpt>
    <trkpt lat="47.3860515605157" lon="10.2854642375473">
    <time>2010-02-07T09:14:58Z</time>
    </trkpt>
    <trkpt lat="47.3860047375227" lon="10.2864462731352">
    <time>2010-02-07T09:14:59Z</time>
    </trkpt>
    <trkpt lat="47.3856336650874" lon="10.2868953653991">
    <time>2010-02-07T09:15:00Z</time>
    </trkpt>
    <trkpt lat="47.3849700119028" lon="10.2876240587825">
    <time>2010-02-07T09:15:01Z</time>
    </trkpt>
    <trkpt lat="47.3843104896387" lon="10.2880374987001">
    <time>2010-02-07T09:15:02Z</time>
    </trkpt>
    <trkpt lat="47.3836088295966" lon="10.2880337344525">
    <time>2010-02-07T09:15:03Z</time>
    </trkpt>
    <trkpt lat="47.3831836502265" lon="10.2884417224126">
    <time>2010-02-07T09:15:04Z</time>
    </trkpt>
    <trkpt lat="47.3829752859585" lon="10.2889665929819">
    <time>2010-02-07T09:15:05Z</time>
    </trkpt>
    <trkpt lat="47.3825888643052" lon="10.2893215091967">
    <time>2010-02-07T09:15:05Z</time>
    </trkpt>
    <trkpt lat="47.3826154276253" lon="10.2895756726377">
    <time>2010-02-07T09:15:06Z</time>
    </trkpt>
    <trkpt lat="47.3827524594987" lon="10.289716918692">
    <time>2010-02-07T09:15:06Z</time>
    </trkpt>
    <trkpt lat="47.3826691352034" lon="10.2901846276308">
    <time>2010-02-07T09:15:06Z</time>
    </trkpt>
    <trkpt lat="47.382238103318" lon="10.2905053227767">
    <time>2010-02-07T09:15:07Z</time>
    </trkpt>
    <trkpt lat="47.380926616174" lon="10.2911026027434">
    <time>2010-02-07T09:15:08Z</time>
    </trkpt>
    <trkpt lat="47.3806024328937" lon="10.2919226940168">
    <time>2010-02-07T09:15:09Z</time>
    </trkpt>
    <trkpt lat="47.3799499377385" lon="10.2939270642175">
    <time>2010-02-07T09:15:09Z</time>
    </trkpt>
    <trkpt lat="47.3790616227021" lon="10.2948989068679">
    <time>2010-02-07T09:15:10Z</time>
    </trkpt>
    <trkpt lat="47.3782265123398" lon="10.2951434074532">
    <time>2010-02-07T09:15:14Z</time>
    </trkpt>
    <trkpt lat="47.3774045329037" lon="10.2962161793448">
    <time>2010-02-07T09:15:15Z</time>
    </trkpt>
    <trkpt lat="47.3762928011718" lon="10.2970499871535">
    <time>2010-02-07T09:15:16Z</time>
    </trkpt>
    <trkpt lat="47.3756068670785" lon="10.298026678761">
    <time>2010-02-07T09:15:17Z</time>
    </trkpt>
    <trkpt lat="47.3752873465332" lon="10.298221226702">
    <time>2010-02-07T09:15:28Z</time>
    </trkpt>
    <trkpt lat="47.3741955488027" lon="10.2979915336123">
    <time>2010-02-07T09:15:29Z</time>
    </trkpt>
    <trkpt lat="47.3728781187057" lon="10.2986220175534">
    <time>2010-02-07T09:15:30Z</time>
    </trkpt>
    <trkpt lat="47.371865648144" lon="10.2985829131672">
    <time>2010-02-07T09:15:31Z</time>
    </trkpt>
    <trkpt lat="47.371023671593" lon="10.2988218513827">
    <time>2010-02-07T09:15:31Z</time>
    </trkpt>
    <trkpt lat="47.3701441118449" lon="10.2996807610842">
    <time>2010-02-07T09:15:38Z</time>
    </trkpt>
    <trkpt lat="47.3699073475646" lon="10.2999699511079">
    <time>2010-02-07T09:15:39Z</time>
    </trkpt>
    <trkpt lat="47.3692437748061" lon="10.2997248659266">
    <time>2010-02-07T09:15:39Z</time>
    </trkpt>
    <trkpt lat="47.3674228630231" lon="10.2996139025954">
    <time>2010-02-07T09:15:40Z</time>
    </trkpt>
    <trkpt lat="47.3667223047339" lon="10.2998946965206">
    <time>2010-02-07T09:15:41Z</time>
    </trkpt>
    <trkpt lat="47.3659797702779" lon="10.2999095625047">
    <time>2010-02-07T09:15:41Z</time>
    </trkpt>
    <trkpt lat="47.3651388064397" lon="10.300493907147">
    <time>2010-02-07T09:15:42Z</time>
    </trkpt>
    <trkpt lat="47.3644471143922" lon="10.3005558467294">
    <time>2010-02-07T09:15:43Z</time>
    </trkpt>
    <trkpt lat="47.3623667743506" lon="10.3011120401533">
    <time>2010-02-07T09:15:44Z</time>
    </trkpt>
    <trkpt lat="47.3612610222752" lon="10.3014159310048">
    <time>2010-02-07T09:15:45Z</time>
    </trkpt>
    <trkpt lat="47.3591076494604" lon="10.3008663672573">
    <time>2010-02-07T09:15:46Z</time>
    </trkpt>
    <trkpt lat="47.3582755309793" lon="10.3008459111339">
    <time>2010-02-07T09:15:48Z</time>
    </trkpt>
    <trkpt lat="47.3578643288679" lon="10.3013986057487">
    <time>2010-02-07T09:15:49Z</time>
    </trkpt>
    <trkpt lat="47.3573013350039" lon="10.3014509718113">
    <time>2010-02-07T09:15:50Z</time>
    </trkpt>
    <trkpt lat="47.3567931777016" lon="10.3018209462867">
    <time>2010-02-07T09:15:51Z</time>
    </trkpt>
    <trkpt lat="47.3553478058046" lon="10.3014040461786">
    <time>2010-02-07T09:15:54Z</time>
    </trkpt>
    <trkpt lat="47.3548885476665" lon="10.3019544087353">
    <time>2010-02-07T09:15:55Z</time>
    </trkpt>
    <trkpt lat="47.3539906339086" lon="10.302082957124">
    <time>2010-02-07T09:15:56Z</time>
    </trkpt>
    <trkpt lat="47.3532659055473" lon="10.3022124210255">
    <time>2010-02-07T09:15:57Z</time>
    </trkpt>
    <trkpt lat="47.3524449913619" lon="10.3031853035602">
    <time>2010-02-07T09:15:58Z</time>
    </trkpt>
    <trkpt lat="47.3514025610786" lon="10.3038547800626">
    <time>2010-02-07T09:16:00Z</time>
    </trkpt>
    <trkpt lat="47.3498338210848" lon="10.3053056845826">
    <time>2010-02-07T09:16:01Z</time>
    </trkpt>
    <trkpt lat="47.3492274236917" lon="10.3060078023615">
    <time>2010-02-07T09:16:04Z</time>
    </trkpt>
    <trkpt lat="47.3475199552085" lon="10.3048977889037">
    <time>2010-02-07T09:16:05Z</time>
    </trkpt>
    <trkpt lat="47.3462907719082" lon="10.3051092006119">
    <time>2010-02-07T09:16:06Z</time>
    </trkpt>
    <trkpt lat="47.3454395790263" lon="10.3047261930648">
    <time>2010-02-07T09:16:07Z</time>
    </trkpt>
    <trkpt lat="47.3441285964523" lon="10.3045361657139">
    <time>2010-02-07T09:16:08Z</time>
    </trkpt>
    <trkpt lat="47.3430247170959" lon="10.3046744506604">
    <time>2010-02-07T09:16:09Z</time>
    </trkpt>
    <trkpt lat="47.3418151681494" lon="10.3042143979242">
    <time>2010-02-07T09:16:12Z</time>
    </trkpt>
    <trkpt lat="47.3409498863233" lon="10.3046449998733">
    <time>2010-02-07T09:16:13Z</time>
    </trkpt>
    <trkpt lat="47.3406571063003" lon="10.3049190366244">
    <time>2010-02-07T09:16:15Z</time>
    </trkpt>
    <trkpt lat="47.3388577139071" lon="10.3051343806689">
    <time>2010-02-07T09:16:16Z</time>
    </trkpt>
    <trkpt lat="47.337155151276" lon="10.3064823302498">
    <time>2010-02-07T09:16:18Z</time>
    </trkpt>
    <trkpt lat="47.3354567255965" lon="10.3074662839912">
    <time>2010-02-07T09:16:19Z</time>
    </trkpt>
    <trkpt lat="47.334215638512" lon="10.3077996490754">
    <time>2010-02-07T09:16:29Z</time>
    </trkpt>
    <trkpt lat="47.332620769104" lon="10.307703412018">
    <time>2010-02-07T09:16:30Z</time>
    </trkpt>
    <trkpt lat="47.3322480403081" lon="10.308046096568">
    <time>2010-02-07T09:16:31Z</time>
    </trkpt>
    <trkpt lat="47.3320625616911" lon="10.3076683258829">
    <time>2010-02-07T09:16:31Z</time>
    </trkpt>
    <trkpt lat="47.3316200619313" lon="10.3075501580075">
    <time>2010-02-07T09:16:31Z</time>
    </trkpt>
    <trkpt lat="47.3308544745164" lon="10.3080906173357">
    <time>2010-02-07T09:16:32Z</time>
    </trkpt>
    <trkpt lat="47.3303928218779" lon="10.307893677281">
    <time>2010-02-07T09:16:33Z</time>
    </trkpt>
    <trkpt lat="47.3302427130662" lon="10.3080836995358">
    <time>2010-02-07T09:16:33Z</time>
    </trkpt>
    <trkpt lat="47.3297163674892" lon="10.3077697556043">
    <time>2010-02-07T09:16:33Z</time>
    </trkpt>
    <trkpt lat="47.3293274215729" lon="10.3076234199319">
    <time>2010-02-07T09:16:33Z</time>
    </trkpt>
    <trkpt lat="47.3289760053946" lon="10.306973141709">
    <time>2010-02-07T09:16:34Z</time>
    </trkpt>
    <trkpt lat="47.3280167730071" lon="10.3069186821253">
    <time>2010-02-07T09:16:35Z</time>
    </trkpt>
    <trkpt lat="47.3271313401341" lon="10.3063177011124">
    <time>2010-02-07T09:16:36Z</time>
    </trkpt>
    <trkpt lat="47.3265913067838" lon="10.3056867209776">
    <time>2010-02-07T09:16:37Z</time>
    </trkpt>
    <trkpt lat="47.3256308567229" lon="10.3052147282948">
    <time>2010-02-07T09:16:38Z</time>
    </trkpt>
    <trkpt lat="47.3246385365797" lon="10.305280336188">
    <time>2010-02-07T09:16:40Z</time>
    </trkpt>
    <trkpt lat="47.3238594885255" lon="10.305866698679">
    <time>2010-02-07T09:16:41Z</time>
    </trkpt>
    <trkpt lat="47.3232653156772" lon="10.3070498270296">
    <time>2010-02-07T09:16:51Z</time>
    </trkpt>
    <trkpt lat="47.3229871909399" lon="10.3064898833833">
    <time>2010-02-07T09:16:52Z</time>
    </trkpt>
    <trkpt lat="47.3227086730107" lon="10.3065120154337">
    <time>2010-02-07T09:16:52Z</time>
    </trkpt>
    <trkpt lat="47.3223730835794" lon="10.3063243157077">
    <time>2010-02-07T09:16:53Z</time>
    </trkpt>
    <trkpt lat="47.3222816066401" lon="10.3074384315153">
    <time>2010-02-07T09:16:53Z</time>
    </trkpt>
    <trkpt lat="47.322221396884" lon="10.3082340622804">
    <time>2010-02-07T09:16:54Z</time>
    </trkpt>
    <trkpt lat="47.3230438376728" lon="10.3091073467546">
    <time>2010-02-07T09:16:55Z</time>
    </trkpt>
    <trkpt lat="47.3228102728966" lon="10.3091280302737">
    <time>2010-02-07T09:16:55Z</time>
    </trkpt>
    <trkpt lat="47.3225923321314" lon="10.3095979854105">
    <time>2010-02-07T09:16:56Z</time>
    </trkpt>
    <trkpt lat="47.3225233116139" lon="10.3104071278586">
    <time>2010-02-07T09:16:57Z</time>
    </trkpt>
    <trkpt lat="47.3217000061196" lon="10.3119149568718">
    <time>2010-02-07T09:16:57Z</time>
    </trkpt>
    <trkpt lat="47.3217310358591" lon="10.3128002660774">
    <time>2010-02-07T09:16:58Z</time>
    </trkpt>
    <trkpt lat="47.3219147452212" lon="10.313058982917">
    <time>2010-02-07T09:16:58Z</time>
    </trkpt>
    <trkpt lat="47.321669231785" lon="10.3134901065407">
    <time>2010-02-07T09:16:59Z</time>
    </trkpt>
    <trkpt lat="47.3216833076533" lon="10.3138753953382">
    <time>2010-02-07T09:16:59Z</time>
    </trkpt>
    <trkpt lat="47.3213631417697" lon="10.314330621722">
    <time>2010-02-07T09:16:59Z</time>
    </trkpt>
    <trkpt lat="47.3215781727707" lon="10.3151961236468">
    <time>2010-02-07T09:17:00Z</time>
    </trkpt>
    <trkpt lat="47.3214063758972" lon="10.3158001888226">
    <time>2010-02-07T09:17:01Z</time>
    </trkpt>
    <trkpt lat="47.3207548722062" lon="10.3163666715698">
    <time>2010-02-07T09:17:01Z</time>
    </trkpt>
    <trkpt lat="47.3203860342601" lon="10.3167585837891">
    <time>2010-02-07T09:17:01Z</time>
    </trkpt>
    <trkpt lat="47.3203560916489" lon="10.3171696025071">
    <time>2010-02-07T09:17:02Z</time>
    </trkpt>
    <trkpt lat="47.3195870924038" lon="10.3180935173064">
    <time>2010-02-07T09:17:03Z</time>
    </trkpt>
    <trkpt lat="47.31915437696" lon="10.3205613916059">
    <time>2010-02-07T09:17:04Z</time>
    </trkpt>
    <trkpt lat="47.3185696327276" lon="10.3224986285925">
    <time>2010-02-07T09:17:05Z</time>
    </trkpt>
    <trkpt lat="47.3176329798765" lon="10.3256841032093">
    <time>2010-02-07T09:17:08Z</time>
    </trkpt>
    <trkpt lat="47.3167534859938" lon="10.3278123268534">
    <time>2010-02-07T09:17:09Z</time>
    </trkpt>
    <trkpt lat="47.3157211310026" lon="10.329539687327">
    <time>2010-02-07T09:17:10Z</time>
    </trkpt>
    <trkpt lat="47.3155467413023" lon="10.3302845825589">
    <time>2010-02-07T09:17:11Z</time>
    </trkpt>
    <trkpt lat="47.3154025646226" lon="10.3308843286895">
    <time>2010-02-07T09:17:12Z</time>
    </trkpt>
    <trkpt lat="47.3150460107455" lon="10.3311071858292">
    <time>2010-02-07T09:17:13Z</time>
    </trkpt>
    <trkpt lat="47.3149148060053" lon="10.3313626236313">
    <time>2010-02-07T09:17:13Z</time>
    </trkpt>
    <trkpt lat="47.3147137333265" lon="10.3311441035527">
    <time>2010-02-07T09:17:13Z</time>
    </trkpt>
    <trkpt lat="47.3142104365824" lon="10.3311731799823">
    <time>2010-02-07T09:17:13Z</time>
    </trkpt>
    <trkpt lat="47.3133436532352" lon="10.3309491775651">
    <time>2010-02-07T09:17:13Z</time>
    </trkpt>
    <trkpt lat="47.3124695780888" lon="10.3305827632958">
    <time>2010-02-07T09:17:14Z</time>
    </trkpt>
    <trkpt lat="47.3127765879333" lon="10.330305732925">
    <time>2010-02-07T09:17:15Z</time>
    </trkpt>
    <trkpt lat="47.3125424982552" lon="10.3290566360259">
    <time>2010-02-07T09:17:15Z</time>
    </trkpt>
    <trkpt lat="47.312645568389" lon="10.3287227350091">
    <time>2010-02-07T09:17:15Z</time>
    </trkpt>
    <trkpt lat="47.3133604024316" lon="10.3283959881887">
    <time>2010-02-07T09:17:16Z</time>
    </trkpt>
    <trkpt lat="47.3129842536626" lon="10.3278920337549">
    <time>2010-02-07T09:17:16Z</time>
    </trkpt>
    <trkpt lat="47.3130718470631" lon="10.3277305561048">
    <time>2010-02-07T09:17:31Z</time>
    </trkpt>
    <trkpt lat="47.3124260481159" lon="10.3278567421519">
    <time>2010-02-07T09:17:32Z</time>
    </trkpt>
    <trkpt lat="47.3122931143249" lon="10.3279931961206">
    <time>2010-02-07T09:17:32Z</time>
    </trkpt>
    <trkpt lat="47.311820379894" lon="10.3276510127208">
    <time>2010-02-07T09:17:32Z</time>
    </trkpt>
    <trkpt lat="47.311470700752" lon="10.3277281757034">
    <time>2010-02-07T09:17:32Z</time>
    </trkpt>
    <trkpt lat="47.3113949918497" lon="10.3280876595036">
    <time>2010-02-07T09:17:32Z</time>
    </trkpt>
    <trkpt lat="47.3110376716828" lon="10.3282576394788">
    <time>2010-02-07T09:17:33Z</time>
    </trkpt>
    <trkpt lat="47.3106407230873" lon="10.3281775815274">
    <time>2010-02-07T09:17:33Z</time>
    </trkpt>
    <trkpt lat="47.3103193662004" lon="10.3283464240303">
    <time>2010-02-07T09:17:33Z</time>
    </trkpt>
    <trkpt lat="47.3102207639208" lon="10.3285748095612">
    <time>2010-02-07T09:17:34Z</time>
    </trkpt>
    <trkpt lat="47.3102173130926" lon="10.328872409811">
    <time>2010-02-07T09:17:34Z</time>
    </trkpt>
    <trkpt lat="47.3100525981223" lon="10.3294967282587">
    <time>2010-02-07T09:17:35Z</time>
    </trkpt>
    <trkpt lat="47.3096831466997" lon="10.3303635122093">
    <time>2010-02-07T09:17:35Z</time>
    </trkpt>
    <trkpt lat="47.3098783114236" lon="10.3307938009036">
    <time>2010-02-07T09:17:36Z</time>
    </trkpt>
    <trkpt lat="47.3097794867131" lon="10.3317059724496">
    <time>2010-02-07T09:17:36Z</time>
    </trkpt>
    <trkpt lat="47.3098210069788" lon="10.3320047001179">
    <time>2010-02-07T09:17:36Z</time>
    </trkpt>
    <trkpt lat="47.3098779010528" lon="10.3326189130469">
    <time>2010-02-07T09:17:37Z</time>
    </trkpt>
    <trkpt lat="47.3106006831286" lon="10.3334558340543">
    <time>2010-02-07T09:17:38Z</time>
    </trkpt>
    <trkpt lat="47.310881984647" lon="10.3348621284271">
    <time>2010-02-07T09:17:39Z</time>
    </trkpt>
    <trkpt lat="47.3110004032977" lon="10.3349642129802">
    <time>2010-02-07T09:17:39Z</time>
    </trkpt>
    <trkpt lat="47.3108226983134" lon="10.3351152773269">
    <time>2010-02-07T09:17:40Z</time>
    </trkpt>
    <trkpt lat="47.3109256967981" lon="10.3366329876198">
    <time>2010-02-07T09:17:40Z</time>
    </trkpt>
    <trkpt lat="47.311075883781" lon="10.3370647205392">
    <time>2010-02-07T09:17:41Z</time>
    </trkpt>
    <trkpt lat="47.3112859362952" lon="10.3372829666814">
    <time>2010-02-07T09:17:41Z</time>
    </trkpt>
    <trkpt lat="47.3111015390334" lon="10.337592941921">
    <time>2010-02-07T09:17:41Z</time>
    </trkpt>
    <trkpt lat="47.3110864341077" lon="10.3377918005452">
    <time>2010-02-07T09:17:41Z</time>
    </trkpt>
    <trkpt lat="47.3108444464799" lon="10.3378522923926">
    <time>2010-02-07T09:17:41Z</time>
    </trkpt>
    <trkpt lat="47.3105136075362" lon="10.3382074095456">
    <time>2010-02-07T09:17:41Z</time>
    </trkpt>
    <trkpt lat="47.3098822471057" lon="10.3384908342488">
    <time>2010-02-07T09:17:41Z</time>
    </trkpt>
    <trkpt lat="47.3095369831254" lon="10.3394935528081">
    <time>2010-02-07T09:17:43Z</time>
    </trkpt>
    <trkpt lat="47.309685052381" lon="10.3397798705606">
    <time>2010-02-07T09:17:44Z</time>
    </trkpt>
    <trkpt lat="47.3094570465135" lon="10.3414269432212">
    <time>2010-02-07T09:17:45Z</time>
    </trkpt>
    <trkpt lat="47.3100922879024" lon="10.3455466158047">
    <time>2010-02-07T09:17:46Z</time>
    </trkpt>
    <trkpt lat="47.3097827347245" lon="10.3465349527302">
    <time>2010-02-07T09:17:46Z</time>
    </trkpt>
    <trkpt lat="47.3092422971006" lon="10.3471072703632">
    <time>2010-02-07T09:17:47Z</time>
    </trkpt>
    <trkpt lat="47.3084426735694" lon="10.3471718813441">
    <time>2010-02-07T09:17:49Z</time>
    </trkpt>
    <trkpt lat="47.3081099777151" lon="10.3478038264192">
    <time>2010-02-07T09:17:49Z</time>
    </trkpt>
    <trkpt lat="47.3077851591968" lon="10.3477346022852">
    <time>2010-02-07T09:17:51Z</time>
    </trkpt>
    <trkpt lat="47.3068307492404" lon="10.3482933358044">
    <time>2010-02-07T09:17:51Z</time>
    </trkpt>
    <trkpt lat="47.306549706707" lon="10.3487649512076">
    <time>2010-02-07T09:17:51Z</time>
    </trkpt>
    <trkpt lat="47.3067289158863" lon="10.3493412493133">
    <time>2010-02-07T09:17:52Z</time>
    </trkpt>
    <trkpt lat="47.306538349873" lon="10.3498497151049">
    <time>2010-02-07T09:17:53Z</time>
    </trkpt>
    <trkpt lat="47.3068397645322" lon="10.350792502161">
    <time>2010-02-07T09:17:53Z</time>
    </trkpt>
    <trkpt lat="47.3063895414158" lon="10.3520099371187">
    <time>2010-02-07T09:17:53Z</time>
    </trkpt>
    <trkpt lat="47.306685494442" lon="10.3538257236458">
    <time>2010-02-07T09:17:55Z</time>
    </trkpt>
    <trkpt lat="47.3065805023266" lon="10.3552836815993">
    <time>2010-02-07T09:17:56Z</time>
    </trkpt>
    <trkpt lat="47.3068870704904" lon="10.3559618483534">
    <time>2010-02-07T09:17:56Z</time>
    </trkpt>
    <trkpt lat="47.3072358228389" lon="10.3558187846308">
    <time>2010-02-07T09:17:57Z</time>
    </trkpt>
    <trkpt lat="47.3075739904385" lon="10.3561918132985">
    <time>2010-02-07T09:17:57Z</time>
    </trkpt>
    <trkpt lat="47.3075482652412" lon="10.3569067482328">
    <time>2010-02-07T09:17:57Z</time>
    </trkpt>
    <trkpt lat="47.3084218026501" lon="10.3573051450959">
    <time>2010-02-07T09:17:59Z</time>
    </trkpt>
    <trkpt lat="47.3090734320307" lon="10.3572562226343">
    <time>2010-02-07T09:17:59Z</time>
    </trkpt>
    <trkpt lat="47.3093186355151" lon="10.3575596395383">
    <time>2010-02-07T09:18:00Z</time>
    </trkpt>
    <trkpt lat="47.3097096247896" lon="10.3577126152333">
    <time>2010-02-07T09:18:00Z</time>
    </trkpt>
    <trkpt lat="47.3099564459762" lon="10.3573611078362">
    <time>2010-02-07T09:18:01Z</time>
    </trkpt>
    <trkpt lat="47.3098727263254" lon="10.3552873237756">
    <time>2010-02-07T09:18:01Z</time>
    </trkpt>
    <trkpt lat="47.3104668171161" lon="10.3559433879157">
    <time>2010-02-07T09:18:02Z</time>
    </trkpt>
    <trkpt lat="47.3107835104604" lon="10.3567006470806">
    <time>2010-02-07T09:18:02Z</time>
    </trkpt>
    <trkpt lat="47.3112932302073" lon="10.3558648493101">
    <time>2010-02-07T09:18:02Z</time>
    </trkpt>
    <trkpt lat="47.3114707736554" lon="10.3557006325832">
    <time>2010-02-07T09:18:03Z</time>
    </trkpt>
  </trkseg>
</trk>
<extensions>
</extensions>
</gpx>
